Time;durP1;ratioP1;P1;durP2;ratioP2;P2;SDS_P1;SDS_P2;PMS_P1;PMS_P2;Temp;Humidity;BMP_temperature;BMP_pressure;BME280_temperature;BME280_humidity;BME280_pressure;Samples;Min_cycle;Max_cycle;Signal;HPM_P1;HPM_P2
2022/04/27 00:01:58;;;;;;;11.43;5.33;;;10.60;95.40;;;;;;4952214;29;20462;-73
2022/04/27 00:04:25;;;;;;;9.87;5.33;;;10.60;95.50;;;;;;4952372;29;20512;-74
2022/04/27 00:06:51;;;;;;;9.67;5.57;;;10.60;95.50;;;;;;4934770;29;20031;-74
2022/04/27 00:09:17;;;;;;;9.20;4.77;;;10.60;95.60;;;;;;4952158;29;20550;-74
2022/04/27 00:11:42;;;;;;;10.30;5.10;;;10.60;95.70;;;;;;4952033;29;20151;-73
2022/04/27 00:14:08;;;;;;;8.90;5.03;;;10.60;95.60;;;;;;4953050;28;20380;-73
2022/04/27 00:16:34;;;;;;;10.13;5.17;;;10.50;95.60;;;;;;4955509;29;20030;-74
2022/04/27 00:19:01;;;;;;;9.50;5.23;;;10.50;95.80;;;;;;4956046;29;20111;-73
2022/04/27 00:21:27;;;;;;;10.53;5.20;;;10.50;95.60;;;;;;4955884;29;20031;-73
2022/04/27 00:23:53;;;;;;;10.87;5.27;;;10.50;95.80;;;;;;4938229;29;20038;-74
2022/04/27 00:26:19;;;;;;;11.50;4.93;;;10.40;95.90;;;;;;4955267;29;20031;-74
2022/04/27 00:28:45;;;;;;;8.67;4.90;;;10.50;95.80;;;;;;4922146;29;20059;-73
2022/04/27 00:31:11;;;;;;;9.37;4.57;;;10.50;95.90;;;;;;4955428;29;20481;-73
2022/04/27 00:33:37;;;;;;;9.47;5.03;;;10.50;95.90;;;;;;4937938;29;20114;-74
2022/04/27 00:36:03;;;;;;;10.57;4.70;;;10.50;95.80;;;;;;4937953;29;20047;-74
2022/04/27 00:38:29;;;;;;;10.77;5.07;;;10.50;95.90;;;;;;4937971;29;20090;-74
2022/04/27 00:40:55;;;;;;;8.47;5.10;;;10.50;95.70;;;;;;4955618;29;20023;-73
2022/04/27 00:43:34;;;;;;;8.47;4.13;;;10.50;95.70;;;;;;4938558;29;20033;-73
2022/04/27 00:46:00;;;;;;;;;;;10.50;95.90;;;;;;4955553;29;20476;-73
2022/04/27 00:48:26;;;;;;;8.30;4.97;;;10.50;95.80;;;;;;4937622;29;19922;-74
2022/04/27 00:50:52;;;;;;;6.90;4.73;;;10.50;95.70;;;;;;4937814;29;20050;-74
2022/04/27 00:53:18;;;;;;;8.30;4.60;;;10.50;95.80;;;;;;4954708;29;20041;-74
2022/04/27 00:55:44;;;;;;;10.93;4.80;;;10.40;96.00;;;;;;4937636;29;20143;-73
2022/04/27 00:58:14;;;;;;;9.10;4.90;;;10.40;96.00;;;;;;4937801;29;20581;-73
2022/04/27 01:00:40;;;;;;;11.17;5.57;;;10.30;96.30;;;;;;4954830;29;20055;-74
2022/04/27 01:03:06;;;;;;;7.37;5.07;;;10.30;96.10;;;;;;4937487;29;20039;-73
2022/04/27 01:05:32;;;;;;;9.37;4.80;;;10.30;96.10;;;;;;4954655;29;20062;-73
2022/04/27 01:08:00;;;;;;;12.30;5.10;;;10.30;96.00;;;;;;4937191;29;20042;-74
2022/04/27 01:10:29;;;;;;;10.27;4.93;;;10.30;96.20;;;;;;4954490;29;20067;-74
2022/04/27 01:12:57;;;;;;;10.15;4.90;;;10.30;96.40;;;;;;4954495;29;20027;-74
2022/04/27 01:15:34;;;;;;;10.10;5.27;;;10.30;96.20;;;;;;4937348;29;20031;-73
2022/04/27 01:18:00;;;;;;;10.23;5.00;;;10.30;96.20;;;;;;4937105;29;20038;-74
2022/04/27 01:20:37;;;;;;;7.77;4.60;;;10.30;96.40;;;;;;4937020;29;20118;-74
2022/04/27 01:23:05;;;;;;;11.93;5.37;;;10.20;96.40;;;;;;4937174;29;20042;-74
2022/04/27 01:25:57;;;;;;;10.53;5.07;;;10.20;96.20;;;;;;4937300;29;20035;-73
2022/04/27 01:28:25;;;;;;;10.17;5.17;;;10.30;96.00;;;;;;4936941;29;20039;-74
2022/04/27 01:31:03;;;;;;;9.75;5.45;;;10.30;96.10;;;;;;4954385;29;20058;-73
2022/04/27 01:33:34;;;;;;;11.80;5.70;;;10.20;96.10;;;;;;4954170;29;20038;-75
2022/04/27 01:36:05;;;;;;;9.43;5.20;;;10.20;96.20;;;;;;4936871;29;20111;-73
2022/04/27 01:38:39;;;;;;;10.70;5.47;;;10.20;96.50;;;;;;4921072;29;20093;-74
2022/04/27 01:41:06;;;;;;;9.00;5.50;;;10.20;96.50;;;;;;4936926;29;20027;-74
2022/04/27 01:43:34;;;;;;;13.60;5.50;;;10.20;96.40;;;;;;4936860;29;20035;-73
2022/04/27 01:46:01;;;;;;;12.87;5.70;;;10.20;96.50;;;;;;4954026;29;20032;-73
2022/04/27 01:48:27;;;;;;;10.40;5.77;;;10.10;96.60;;;;;;4953841;29;20396;-73
2022/04/27 01:50:54;;;;;;;10.50;5.40;;;10.10;96.60;;;;;;4954063;29;20065;-74
2022/04/27 01:56:06;;;;;;;10.03;5.57;;;10.20;96.50;;;;;;4936776;29;20134;-73
2022/04/27 01:58:38;;;;;;;12.17;5.87;;;10.20;96.60;;;;;;4936617;29;20453;-74
2022/04/27 02:01:04;;;;;;;12.17;5.57;;;10.20;96.70;;;;;;4936790;29;20031;-73
2022/04/27 02:03:30;;;;;;;11.53;5.70;;;10.20;96.60;;;;;;4936660;29;20035;-74
2022/04/27 02:05:57;;;;;;;11.23;5.33;;;10.10;96.50;;;;;;4953759;29;20073;-74
2022/04/27 02:08:24;;;;;;;9.30;5.53;;;10.10;96.60;;;;;;4936266;29;20031;-74
2022/04/27 02:10:51;;;;;;;10.20;5.03;;;10.10;96.60;;;;;;4936602;29;20178;-73
2022/04/27 02:13:18;;;;;;;10.40;5.30;;;10.10;96.80;;;;;;4936416;29;20028;-73
2022/04/27 02:15:44;;;;;;;9.43;5.20;;;10.00;96.70;;;;;;4936537;29;20031;-73
2022/04/27 02:18:24;;;;;;;8.57;5.40;;;10.00;96.80;;;;;;4936331;29;20027;-73
2022/04/27 02:20:50;;;;;;;10.73;5.20;;;10.00;96.80;;;;;;4936250;29;20034;-72
2022/04/27 02:23:20;;;;;;;9.93;5.40;;;9.90;96.90;;;;;;4936313;29;20054;-72
2022/04/27 02:25:47;;;;;;;11.53;5.90;;;9.90;96.80;;;;;;4936488;29;20039;-69
2022/04/27 02:28:13;;;;;;;9.47;5.80;;;9.80;96.90;;;;;;4936064;29;20515;-71
2022/04/27 02:30:40;;;;;;;11.47;5.73;;;9.80;97.00;;;;;;4936573;29;20104;-71
2022/04/27 02:33:07;;;;;;;9.67;5.77;;;9.70;97.20;;;;;;4936452;29;20121;-71
2022/04/27 02:35:33;;;;;;;8.87;5.20;;;9.70;97.10;;;;;;4953330;29;20039;-71
2022/04/27 02:37:59;;;;;;;10.40;5.73;;;9.70;97.40;;;;;;4919528;29;20063;-71
2022/04/27 02:40:27;;;;;;;9.50;5.83;;;9.70;97.10;;;;;;4935852;29;20020;-71
2022/04/27 02:42:56;;;;;;;;;;;9.60;97.20;;;;;;4936142;29;20409;-71
2022/04/27 02:45:23;;;;;;;10.83;5.77;;;9.70;97.40;;;;;;4935838;29;20332;-71
2022/04/27 02:47:49;;;;;;;11.70;6.17;;;9.60;97.30;;;;;;4935330;29;20038;-71
2022/04/27 02:53:01;;;;;;;12.63;5.80;;;9.50;97.50;;;;;;4935539;29;20111;-71
2022/04/27 02:55:31;;;;;;;11.07;6.07;;;9.50;97.60;;;;;;4920542;29;20028;-70
2022/04/27 02:57:57;;;;;;;9.50;6.07;;;9.50;97.50;;;;;;4935571;29;20027;-71
2022/04/27 03:00:24;;;;;;;10.87;5.40;;;9.50;97.70;;;;;;4935778;29;20031;-71
2022/04/27 03:02:51;;;;;;;9.77;5.97;;;9.40;97.80;;;;;;4935524;29;20404;-71
2022/04/27 03:05:22;;;;;;;12.63;6.40;;;9.50;97.90;;;;;;4935716;29;20043;-73
2022/04/27 03:07:48;;;;;;;10.37;5.93;;;9.40;98.00;;;;;;4935585;29;20143;-73
2022/04/27 03:10:14;;;;;;;9.93;6.27;;;9.40;98.10;;;;;;4953049;29;20031;-70
2022/04/27 03:12:40;;;;;;;10.93;6.07;;;9.30;98.10;;;;;;4936485;29;20035;-71
2022/04/27 03:15:07;;;;;;;12.07;6.30;;;9.30;98.40;;;;;;4936829;29;20031;-72
2022/04/27 03:17:34;;;;;;;13.60;6.13;;;9.20;98.60;;;;;;4921538;29;20118;-73
2022/04/27 03:20:04;;;;;;;;;;;9.20;98.80;;;;;;4942736;29;20032;-72
2022/04/27 03:22:31;;;;;;;11.83;6.27;;;9.20;98.80;;;;;;4936299;29;20395;-72
2022/04/27 03:24:56;;;;;;;10.27;5.97;;;9.20;98.90;;;;;;4952471;29;20121;-73
2022/04/27 03:27:27;;;;;;;11.20;6.43;;;9.10;99.00;;;;;;4931613;29;20567;-72
2022/04/27 03:29:53;;;;;;;11.80;6.30;;;9.10;99.00;;;;;;4942410;29;20035;-71
2022/04/27 03:32:20;;;;;;;9.97;6.10;;;9.00;99.90;;;;;;4949749;29;20114;-72
2022/04/27 03:34:59;;;;;;;10.45;6.50;;;9.00;99.60;;;;;;4935333;29;20058;-72
2022/04/27 03:37:28;;;;;;;11.30;6.70;;;9.00;99.90;;;;;;4949434;29;20404;-72
2022/04/27 03:39:54;;;;;;;11.70;7.10;;;9.00;99.80;;;;;;4952247;28;20037;-72
2022/04/27 03:42:22;;;;;;;14.77;6.57;;;8.90;99.70;;;;;;4952400;28;20492;-72
2022/04/27 03:44:54;;;;;;;12.33;6.30;;;8.90;99.90;;;;;;4952781;28;20030;-72
2022/04/27 03:47:23;;;;;;;14.13;6.75;;;8.90;99.90;;;;;;4952418;28;20499;-72
2022/04/27 03:49:49;;;;;;;10.27;6.43;;;8.90;99.90;;;;;;4954663;28;20388;-73
2022/04/27 03:52:16;;;;;;;12.17;6.73;;;9.00;99.80;;;;;;4956020;28;20035;-72
2022/04/27 03:54:46;;;;;;;14.47;7.53;;;9.00;99.70;;;;;;4956249;28;20031;-72
2022/04/27 03:57:12;;;;;;;13.20;6.80;;;9.00;99.70;;;;;;4956263;28;20069;-72
2022/04/27 03:59:38;;;;;;;12.70;7.27;;;9.00;99.50;;;;;;4955823;28;20386;-72
2022/04/27 04:02:04;;;;;;;12.20;7.30;;;9.00;99.50;;;;;;4956227;28;20062;-72
2022/04/27 04:04:30;;;;;;;10.93;6.53;;;9.20;99.50;;;;;;4956232;28;20117;-72
2022/04/27 04:06:56;;;;;;;14.03;6.70;;;9.20;99.50;;;;;;4956095;28;20038;-73
2022/04/27 04:09:24;;;;;;;11.60;7.10;;;9.20;99.50;;;;;;4955782;28;20042;-72
2022/04/27 04:11:49;;;;;;;13.17;7.60;;;9.10;99.60;;;;;;4956020;28;20520;-72
2022/04/27 04:14:30;;;;;;;13.50;7.43;;;9.10;99.80;;;;;;4973317;28;20054;-72
2022/04/27 04:17:04;;;;;;;12.17;7.43;;;9.10;99.70;;;;;;4955761;28;20023;-72
2022/04/27 04:19:34;;;;;;;11.95;7.47;;;9.10;99.80;;;;;;4955726;28;20102;-72
2022/04/27 04:22:18;;;;;;;15.60;7.67;;;9.10;99.70;;;;;;4973182;28;20037;-72
2022/04/27 04:30:28;;;;;;;13.37;7.10;;;9.00;99.90;;;;;;4956175;28;20206;-73
2022/04/27 04:33:27;;;;;;;15.63;8.23;;;9.10;99.70;;;;;;4961598;28;20431;-72
2022/04/27 04:35:56;;;;;;;14.23;7.87;;;9.00;99.90;;;;;;4955801;28;20034;-72
2022/04/27 04:38:22;;;;;;;14.27;8.07;;;9.00;99.90;;;;;;4955112;28;20357;-72
2022/04/27 04:40:53;;;;;;;13.07;7.77;;;9.00;99.90;;;;;;4955795;28;20031;-72
2022/04/27 04:43:20;;;;;;;13.80;8.13;;;8.90;99.90;;;;;;4955349;28;20103;-72
2022/04/27 04:45:47;;;;;;;15.43;8.57;;;9.00;99.90;;;;;;4955639;28;20031;-72
2022/04/27 04:48:37;;;;;;;16.10;8.53;;;9.00;99.90;;;;;;4939302;28;20117;-73
2022/04/27 04:51:22;;;;;;;13.10;8.37;;;9.00;99.90;;;;;;4973368;28;20046;-72
2022/04/27 04:53:59;;;;;;;13.97;8.10;;;9.00;99.90;;;;;;4955143;28;20035;-72
2022/04/27 04:56:58;;;;;;;19.80;8.67;;;9.00;99.90;;;;;;4939836;28;20027;-72
2022/04/27 04:59:35;;;;;;;17.47;8.17;;;9.00;99.90;;;;;;4954685;28;20119;-72
2022/04/27 05:02:18;;;;;;;16.03;8.40;;;8.90;99.90;;;;;;4955202;28;20129;-72
2022/04/27 05:05:08;;;;;;;17.37;8.87;;;9.00;99.90;;;;;;4955386;28;20093;-73
2022/04/27 05:07:37;;;;;;;13.60;8.50;;;9.00;99.90;;;;;;4972661;28;20055;-74
2022/04/27 05:10:32;;;;;;;14.40;8.77;;;9.00;99.90;;;;;;4953826;28;20500;-73
2022/04/27 05:13:10;;;;;;;14.57;8.73;;;9.10;99.90;;;;;;4955090;28;20034;-74
2022/04/27 05:16:06;;;;;;;16.30;8.60;;;9.10;99.90;;;;;;4955414;28;20054;-72
2022/04/27 05:18:50;;;;;;;15.67;9.40;;;9.10;99.90;;;;;;4972244;28;20435;-72
2022/04/27 05:21:22;;;;;;;18.00;8.60;;;9.20;99.90;;;;;;4972817;28;20055;-73
2022/04/27 05:24:06;;;;;;;16.53;9.33;;;9.20;99.90;;;;;;4941183;28;20090;-73
2022/04/27 05:27:01;;;;;;;14.17;8.97;;;9.20;99.90;;;;;;4959338;28;20496;-72
2022/04/27 05:32:27;;;;;;;15.20;9.20;;;9.10;99.90;;;;;;4972040;28;20043;-72
2022/04/27 05:35:19;;;;;;;15.70;8.83;;;9.20;99.90;;;;;;4948884;28;20041;-72
2022/04/27 05:38:14;;;;;;;16.33;9.17;;;9.10;99.90;;;;;;4950549;28;20047;-72
2022/04/27 05:41:12;;;;;;;14.87;8.47;;;9.20;99.90;;;;;;4957907;28;20439;-72
2022/04/27 05:43:38;;;;;;;15.23;9.67;;;9.20;99.90;;;;;;4970136;28;20113;-72
2022/04/27 05:46:37;;;;;;;15.87;9.40;;;9.30;99.90;;;;;;4956214;28;20035;-73
2022/04/27 05:49:23;;;;;;;18.27;10.17;;;9.40;99.90;;;;;;4952810;28;20282;-74
2022/04/27 05:52:08;;;;;;;18.17;10.00;;;9.40;99.90;;;;;;4953867;28;20065;-71
2022/04/27 05:54:48;;;;;;;14.93;9.83;;;9.40;99.90;;;;;;4954860;28;20546;-69
2022/04/27 05:57:29;;;;;;;17.37;10.47;;;9.40;99.90;;;;;;4953996;28;20058;-69
2022/04/27 06:00:23;;;;;;;19.53;10.83;;;9.40;99.90;;;;;;4941732;28;20039;-72
2022/04/27 06:03:03;;;;;;;15.97;10.00;;;9.40;99.90;;;;;;4940402;28;20038;-72
2022/04/27 06:05:31;;;;;;;;;;;9.50;99.90;;;;;;4955401;28;20058;-71
2022/04/27 06:07:57;;;;;;;17.93;10.80;;;9.50;99.90;;;;;;4954505;28;20372;-71
2022/04/27 06:10:27;;;;;;;20.27;10.43;;;9.60;99.90;;;;;;4938975;28;20344;-73
2022/04/27 06:13:00;;;;;;;16.43;10.23;;;9.70;99.90;;;;;;4953089;28;20062;-70
2022/04/27 06:15:46;;;;;;;21.13;10.63;;;9.70;99.90;;;;;;4950770;28;20508;-70
2022/04/27 06:18:31;;;;;;;22.23;11.03;;;9.80;99.90;;;;;;4971723;28;20110;-72
2022/04/27 06:20:58;;;;;;;19.23;10.43;;;9.80;99.90;;;;;;4954363;28;20027;-72
2022/04/27 06:23:24;;;;;;;22.77;11.00;;;9.90;99.90;;;;;;4937868;28;20547;-73
2022/04/27 06:25:50;;;;;;;20.53;10.83;;;10.00;99.90;;;;;;4938049;28;20062;-70
2022/04/27 06:28:22;;;;;;;24.80;10.80;;;10.00;99.90;;;;;;4953377;28;20122;-69
2022/04/27 06:30:51;;;;;;;20.37;10.37;;;10.10;99.90;;;;;;4954609;28;20188;-69
2022/04/27 06:33:19;;;;;;;17.87;9.93;;;10.10;99.90;;;;;;4954350;28;20369;-70
2022/04/27 06:35:46;;;;;;;20.50;11.13;;;10.20;99.90;;;;;;4955295;28;20038;-70
2022/04/27 06:38:14;;;;;;;19.60;10.00;;;10.20;99.90;;;;;;4955102;28;20077;-69
2022/04/27 06:40:40;;;;;;;16.43;9.77;;;10.30;99.90;;;;;;4956091;28;20486;-75
2022/04/27 06:43:07;;;;;;;15.23;9.50;;;10.30;99.90;;;;;;4952120;28;20027;-72
2022/04/27 06:45:48;;;;;;;17.03;9.37;;;10.40;99.80;;;;;;4932966;29;20409;-72
2022/04/27 06:48:33;;;;;;;18.40;10.13;;;10.40;99.70;;;;;;4933512;29;20119;-72
2022/04/27 06:51:18;;;;;;;20.07;8.93;;;10.50;99.30;;;;;;4933710;29;20042;-72
2022/04/27 06:54:04;;;;;;;15.53;9.17;;;10.50;99.00;;;;;;4933028;29;20043;-72
2022/04/27 06:56:48;;;;;;;18.77;9.30;;;10.60;99.00;;;;;;4933327;29;20054;-72
2022/04/27 06:59:29;;;;;;;17.47;8.67;;;10.60;98.70;;;;;;4932896;29;20039;-71
2022/04/27 07:02:00;;;;;;;14.33;7.77;;;10.60;98.60;;;;;;4915400;29;20062;-70
2022/04/27 07:04:27;;;;;;;13.47;7.83;;;10.70;98.10;;;;;;4932569;29;20024;-71
2022/04/27 07:06:53;;;;;;;15.03;8.43;;;10.70;98.10;;;;;;4915066;29;20138;-71
2022/04/27 07:09:20;;;;;;;16.20;8.17;;;10.70;98.30;;;;;;4932519;29;20031;-71
2022/04/27 07:11:46;;;;;;;14.07;7.60;;;10.80;98.30;;;;;;4932319;29;20701;-71
2022/04/27 07:14:15;;;;;;;13.63;7.70;;;10.80;98.30;;;;;;4932012;29;20118;-71
2022/04/27 07:16:43;;;;;;;13.30;6.63;;;10.90;98.10;;;;;;4932263;29;20032;-70
2022/04/27 07:19:09;;;;;;;10.80;6.77;;;10.90;98.00;;;;;;4932563;29;20077;-71
2022/04/27 07:21:35;;;;;;;11.73;6.53;;;10.90;97.80;;;;;;4932759;29;20055;-71
2022/04/27 07:24:02;;;;;;;13.07;6.17;;;11.00;97.60;;;;;;4917699;29;20036;-71
2022/04/27 07:26:29;;;;;;;13.17;7.10;;;11.00;97.40;;;;;;4919089;29;20091;-71
2022/04/27 07:28:58;;;;;;;10.80;6.30;;;11.00;97.30;;;;;;4935964;29;20039;-71
2022/04/27 07:31:24;;;;;;;11.80;6.87;;;11.10;97.20;;;;;;4936327;29;20031;-70
2022/04/27 07:33:50;;;;;;;17.30;6.47;;;11.10;97.30;;;;;;4935659;29;20055;-73
2022/04/27 07:36:16;;;;;;;13.47;5.87;;;11.20;97.20;;;;;;4936142;29;20059;-70
2022/04/27 07:38:42;;;;;;;10.63;5.57;;;11.20;96.50;;;;;;4918847;29;20040;-70
2022/04/27 07:41:10;;;;;;;10.47;4.77;;;11.30;96.50;;;;;;4936592;29;20035;-70
2022/04/27 07:43:36;;;;;;;8.63;4.73;;;11.30;95.80;;;;;;4918652;29;20044;-70
2022/04/27 07:46:05;;;;;;;14.00;5.67;;;11.30;95.60;;;;;;4936038;29;20043;-70
2022/04/27 07:48:34;;;;;;;8.23;4.85;;;11.40;95.50;;;;;;4935436;29;20508;-70
2022/04/27 07:51:01;;;;;;;10.23;4.77;;;11.40;95.60;;;;;;4919021;29;20067;-70
2022/04/27 07:53:27;;;;;;;10.57;4.60;;;11.40;94.50;;;;;;4935521;29;20024;-70
2022/04/27 07:55:54;;;;;;;9.17;5.40;;;11.40;94.70;;;;;;4918699;29;20111;-70
2022/04/27 07:58:19;;;;;;;14.87;5.43;;;11.40;95.00;;;;;;4917532;29;20106;-70
2022/04/27 08:00:45;;;;;;;8.30;4.90;;;11.50;95.30;;;;;;4935493;29;20085;-68
2022/04/27 08:03:11;;;;;;;11.63;4.90;;;11.50;95.10;;;;;;4934999;29;20112;-70
2022/04/27 08:05:37;;;;;;;15.03;5.83;;;11.60;95.20;;;;;;4935768;29;20509;-70
2022/04/27 08:08:05;;;;;;;12.33;5.57;;;11.60;94.60;;;;;;4935577;29;20433;-70
2022/04/27 08:10:31;;;;;;;9.97;4.80;;;11.60;94.70;;;;;;4936013;29;20127;-70
2022/04/27 08:12:58;;;;;;;8.77;4.23;;;11.60;95.00;;;;;;4917465;29;20071;-70
2022/04/27 08:15:25;;;;;;;11.83;4.20;;;11.60;94.10;;;;;;4917943;29;20512;-69
2022/04/27 08:17:55;;;;;;;10.57;4.80;;;11.70;93.70;;;;;;4935028;29;20063;-69
2022/04/27 08:23:12;;;;;;;8.40;4.23;;;11.70;92.20;;;;;;4935037;29;20142;-69
2022/04/27 08:25:38;;;;;;;10.17;4.33;;;11.70;92.20;;;;;;4935158;29;20279;-69
2022/04/27 08:28:06;;;;;;;10.30;4.70;;;11.80;92.60;;;;;;4934827;29;20417;-69
2022/04/27 08:30:37;;;;;;;12.03;4.90;;;11.80;92.50;;;;;;4934960;29;20166;-70
2022/04/27 08:33:05;;;;;;;9.67;4.50;;;11.80;92.80;;;;;;4934735;29;20074;-70
2022/04/27 08:35:32;;;;;;;9.07;4.17;;;11.90;92.90;;;;;;4933645;29;20035;-70
2022/04/27 08:38:01;;;;;;;9.50;4.57;;;11.90;92.60;;;;;;4933745;29;20107;-70
2022/04/27 08:40:28;;;;;;;11.90;5.23;;;11.90;92.30;;;;;;4960818;28;20031;-70
2022/04/27 08:42:56;;;;;;;11.17;4.97;;;11.90;92.10;;;;;;4959045;28;20082;-70
2022/04/27 08:45:22;;;;;;;8.63;4.17;;;12.00;92.10;;;;;;4962427;28;20291;-70
2022/04/27 08:47:51;;;;;;;9.93;4.73;;;12.00;91.90;;;;;;4954074;28;20336;-71
2022/04/27 08:50:20;;;;;;;12.10;4.60;;;12.00;91.40;;;;;;4972591;28;20113;-71
2022/04/27 08:52:47;;;;;;;7.57;3.80;;;12.10;91.00;;;;;;4955347;28;20034;-71
2022/04/27 08:55:14;;;;;;;10.27;4.00;;;12.10;91.40;;;;;;4972881;28;20023;-71
2022/04/27 08:57:40;;;;;;;7.70;4.20;;;12.10;91.80;;;;;;4972111;28;20039;-71
2022/04/27 09:00:09;;;;;;;9.00;3.90;;;12.10;91.80;;;;;;4972804;28;20078;-71
2022/04/27 09:02:35;;;;;;;9.20;4.45;;;12.20;91.50;;;;;;4972538;28;20035;-71
2022/04/27 09:05:14;;;;;;;9.57;4.40;;;12.20;90.70;;;;;;4972481;28;20034;-71
2022/04/27 09:07:51;;;;;;;6.63;3.97;;;12.30;90.60;;;;;;4972298;28;20034;-70
2022/04/27 09:10:19;;;;;;;11.57;4.77;;;12.30;90.50;;;;;;4972548;28;20491;-71
2022/04/27 09:12:49;;;;;;;7.35;3.90;;;12.30;90.60;;;;;;4971761;28;20045;-71
2022/04/27 09:15:20;;;;;;;9.07;4.37;;;12.30;90.40;;;;;;4972131;28;20037;-71
2022/04/27 09:20:47;;;;;;;11.60;5.63;;;12.40;90.00;;;;;;4972325;28;20033;-71
2022/04/27 09:23:21;;;;;;;;;;;12.40;90.80;;;;;;4972475;28;20423;-71
2022/04/27 09:25:47;;;;;;;10.40;6.10;;;12.40;90.70;;;;;;4972035;28;19941;-72
2022/04/27 09:28:13;;;;;;;9.00;5.77;;;12.50;89.30;;;;;;4971297;28;20115;-71
2022/04/27 09:30:42;;;;;;;10.07;6.87;;;12.50;89.20;;;;;;4972313;28;20487;-71
2022/04/27 09:33:08;;;;;;;10.32;6.32;;;12.60;89.40;;;;;;4971716;28;20405;-71
2022/04/27 09:35:36;;;;;;;16.27;6.80;;;12.60;87.40;;;;;;4954404;28;20396;-71
2022/04/27 09:38:16;;;;;;;8.20;4.57;;;12.60;87.20;;;;;;4971720;28;20093;-71
2022/04/27 09:40:48;;;;;;;13.77;6.87;;;12.70;88.30;;;;;;4971938;28;20235;-71
2022/04/27 09:43:15;;;;;;;9.53;5.10;;;12.80;86.90;;;;;;4971479;28;20085;-71
2022/04/27 09:45:44;;;;;;;14.33;6.50;;;12.80;86.10;;;;;;4938350;28;20039;-71
2022/04/27 09:48:18;;;;;;;11.60;5.17;;;12.80;85.50;;;;;;4954118;28;20038;-71
2022/04/27 09:50:49;;;;;;;8.37;5.33;;;12.80;85.80;;;;;;4972063;28;20110;-71
2022/04/27 09:53:17;;;;;;;9.80;5.40;;;12.70;85.10;;;;;;4971406;28;20031;-71
2022/04/27 09:55:48;;;;;;;9.23;5.00;;;12.80;83.80;;;;;;4971809;28;20063;-71
2022/04/27 09:58:16;;;;;;;8.47;4.80;;;12.80;83.30;;;;;;4970826;28;20033;-71
2022/04/27 10:00:48;;;;;;;9.50;5.50;;;12.80;84.30;;;;;;4971237;28;20365;-68
2022/04/27 10:03:21;;;;;;;14.05;5.65;;;12.90;84.20;;;;;;4971170;28;20507;-70
2022/04/27 10:05:47;;;;;;;12.00;5.93;;;13.00;83.70;;;;;;4971753;28;20035;-70
2022/04/27 10:08:13;;;;;;;11.65;6.00;;;13.00;84.00;;;;;;4971036;28;20031;-72
2022/04/27 10:10:41;;;;;;;10.82;6.20;;;13.00;85.10;;;;;;4971687;28;20579;-68
2022/04/27 10:13:13;;;;;;;9.07;6.17;;;13.00;84.00;;;;;;4953453;28;20353;-69
2022/04/27 10:15:46;;;;;;;9.47;5.93;;;13.10;83.60;;;;;;4971478;28;20077;-71
2022/04/27 10:18:17;;;;;;;11.15;5.90;;;13.10;83.10;;;;;;4970969;28;20033;-70
2022/04/27 10:20:44;;;;;;;10.18;5.70;;;13.20;83.70;;;;;;4971319;28;20126;-70
2022/04/27 10:23:19;;;;;;;11.00;6.60;;;13.20;83.20;;;;;;4971038;28;20058;-71
2022/04/27 10:26:14;;;;;;;9.27;5.33;;;13.20;84.60;;;;;;4971357;28;20471;-70
2022/04/27 10:28:54;;;;;;;10.20;6.30;;;13.20;84.80;;;;;;4950177;28;20451;-70
2022/04/27 10:31:47;;;;;;;15.87;7.70;;;13.20;85.00;;;;;;4971072;28;20129;-72
2022/04/27 10:34:23;;;;;;;10.40;6.82;;;13.10;85.20;;;;;;4970907;28;20045;-70
2022/04/27 10:36:51;;;;;;;15.85;8.60;;;13.20;89.60;;;;;;4970965;28;20466;-70
2022/04/27 10:39:22;;;;;;;17.90;8.02;;;13.30;89.40;;;;;;4970556;28;20034;-70
2022/04/27 10:41:49;;;;;;;14.77;7.43;;;13.40;87.90;;;;;;4970747;28;20047;-70
2022/04/27 10:44:15;;;;;;;12.07;6.47;;;13.40;85.00;;;;;;4970504;28;20030;-69
2022/04/27 10:46:44;;;;;;;14.35;6.90;;;13.50;85.40;;;;;;4970816;28;20093;-71
2022/04/27 10:49:28;;;;;;;10.75;6.43;;;13.50;84.10;;;;;;4970740;28;20039;-71
2022/04/27 10:52:08;;;;;;;14.40;6.25;;;13.50;83.40;;;;;;4970812;28;20134;-70
2022/04/27 10:54:38;;;;;;;11.98;5.90;;;13.50;84.20;;;;;;4971046;28;20476;-70
2022/04/27 10:57:16;;;;;;;10.18;5.93;;;13.50;85.40;;;;;;4970740;28;20038;-71
2022/04/27 10:59:47;;;;;;;10.63;5.60;;;13.50;84.20;;;;;;4970071;28;20038;-70
2022/04/27 11:02:38;;;;;;;9.45;5.68;;;13.50;84.00;;;;;;4970773;28;20031;-70
2022/04/27 11:05:10;;;;;;;11.10;7.18;;;13.40;84.50;;;;;;4970761;28;20054;-71
2022/04/27 11:07:51;;;;;;;12.23;5.97;;;13.50;83.30;;;;;;4970665;28;20406;-71
2022/04/27 11:10:17;;;;;;;11.10;5.63;;;13.50;83.00;;;;;;4970578;28;20396;-71
2022/04/27 11:12:46;;;;;;;15.38;6.75;;;13.40;83.90;;;;;;4969986;28;20037;-70
2022/04/27 11:15:25;;;;;;;12.68;6.30;;;13.60;84.90;;;;;;4970598;28;20035;-70
2022/04/27 11:18:01;;;;;;;42.78;8.55;;;13.60;83.70;;;;;;4969966;28;20118;-71
2022/04/27 11:20:34;;;;;;;16.23;7.40;;;13.60;84.10;;;;;;4952971;28;20027;-71
2022/04/27 11:23:03;;;;;;;12.40;7.45;;;13.70;84.50;;;;;;4970593;28;20403;-70
2022/04/27 11:25:31;;;;;;;14.15;6.85;;;13.70;83.80;;;;;;4953878;28;20046;-70
2022/04/27 11:28:01;;;;;;;10.50;5.55;;;13.80;84.30;;;;;;4969951;28;20047;-70
2022/04/27 11:30:30;;;;;;;14.10;6.97;;;13.70;84.20;;;;;;4970484;28;20467;-70
2022/04/27 11:32:57;;;;;;;10.25;6.15;;;13.80;83.10;;;;;;4969922;28;20041;-70
2022/04/27 11:35:25;;;;;;;9.65;6.35;;;13.70;83.50;;;;;;4991837;23;20050;-85
2022/04/27 11:37:55;;;;;;;10.23;6.20;;;13.70;83.70;;;;;;4952970;28;20046;-85
2022/04/27 11:40:25;;;;;;;6.95;5.20;;;13.70;83.90;;;;;;4970353;28;20019;-85
2022/04/27 11:42:52;;;;;;;10.20;5.28;;;13.70;83.70;;;;;;4952115;28;20039;-85
2022/04/27 11:45:19;;;;;;;10.05;5.07;;;13.70;84.10;;;;;;4952843;28;20034;-85
2022/04/27 11:47:58;;;;;;;8.60;4.72;;;13.70;84.60;;;;;;4969961;28;20035;-85
2022/04/27 11:50:24;;;;;;;9.60;5.22;;;13.80;85.30;;;;;;4970225;28;20027;-85
2022/04/27 11:53:07;;;;;;;8.68;5.40;;;13.90;85.00;;;;;;4969630;28;20033;-85
2022/04/27 11:55:35;;;;;;;12.52;5.80;;;13.90;85.00;;;;;;4970381;28;20359;-85
2022/04/27 11:58:02;;;;;;;11.23;6.70;;;14.00;84.20;;;;;;4952055;28;20434;-85
2022/04/27 12:00:30;;;;;;;11.27;6.53;;;14.20;82.60;;;;;;4970332;28;20022;-85
2022/04/27 12:03:09;;;;;;;10.70;6.25;;;14.20;82.90;;;;;;4969788;28;20137;-85
2022/04/27 12:05:36;;;;;;;9.35;6.10;;;14.20;82.50;;;;;;4969762;28;20023;-85
2022/04/27 12:08:09;;;;;;;13.35;7.20;;;14.10;82.10;;;;;;4952695;28;20038;-85
2022/04/27 12:10:42;;;;;;;11.40;6.65;;;14.10;82.50;;;;;;4954460;28;20109;-85
2022/04/27 12:13:13;;;;;;;10.32;5.80;;;14.10;82.70;;;;;;4972423;28;20043;-86
2022/04/27 12:15:47;;;;;;;10.57;6.63;;;14.20;83.00;;;;;;4956000;28;20027;-85
2022/04/27 12:18:27;;;;;;;13.75;6.47;;;14.20;82.80;;;;;;4956135;28;20515;-83
2022/04/27 12:20:55;;;;;;;10.82;6.20;;;14.20;82.60;;;;;;4973280;28;20110;-84
2022/04/27 12:23:26;;;;;;;8.45;5.25;;;14.20;82.90;;;;;;4955828;28;20081;-83
2022/04/27 12:25:59;;;;;;;8.52;5.75;;;14.20;83.30;;;;;;4956035;28;20034;-80
2022/04/27 12:28:30;;;;;;;11.50;7.38;;;14.20;83.40;;;;;;4972207;28;20093;-84
2022/04/27 12:31:03;;;;;;;12.50;6.95;;;14.30;83.40;;;;;;4973577;28;20065;-78
2022/04/27 12:33:48;;;;;;;11.60;6.07;;;14.40;86.50;;;;;;4973128;28;20065;-82
2022/04/27 12:39:16;;;;;;;11.60;7.05;;;14.70;84.80;;;;;;4973070;28;20035;-78
2022/04/27 12:41:44;;;;;;;10.77;7.00;;;14.90;83.50;;;;;;4973035;28;20042;-79
2022/04/27 12:44:11;;;;;;;13.88;6.97;;;14.90;83.10;;;;;;4972235;28;20031;-78
2022/04/27 12:46:53;;;;;;;12.70;6.50;;;14.90;80.60;;;;;;4955409;28;20031;-81
2022/04/27 12:49:28;;;;;;;15.23;6.32;;;14.90;80.70;;;;;;4972516;28;20041;-80
2022/04/27 12:51:55;;;;;;;11.35;7.30;;;14.90;80.70;;;;;;4972590;28;20031;-78
2022/04/27 12:54:35;;;;;;;11.73;6.85;;;14.80;80.50;;;;;;4972618;28;20085;-79
2022/04/27 12:57:02;;;;;;;10.43;6.47;;;14.70;80.80;;;;;;4973019;28;20113;-79
2022/04/27 12:59:28;;;;;;;11.23;6.38;;;14.70;82.40;;;;;;4971609;28;20030;-79
2022/04/27 13:02:02;;;;;;;11.65;6.93;;;14.70;82.20;;;;;;4954795;28;20035;-79
2022/04/27 13:04:29;;;;;;;14.50;6.90;;;14.70;81.50;;;;;;4954743;28;20531;-79
2022/04/27 13:06:54;;;;;;;12.95;6.68;;;14.80;81.60;;;;;;4972529;28;20079;-80
2022/04/27 13:12:07;;;;;;;11.75;6.75;;;14.90;80.50;;;;;;4972153;28;20544;-80
2022/04/27 13:14:33;;;;;;;13.07;6.72;;;14.80;80.20;;;;;;4954553;28;20031;-83
2022/04/27 13:16:59;;;;;;;13.25;6.68;;;14.80;80.70;;;;;;4954541;28;20027;-83
2022/04/27 13:19:24;;;;;;;13.18;6.40;;;14.80;80.50;;;;;;4971512;28;20035;-83
2022/04/27 13:21:50;;;;;;;13.40;6.80;;;14.80;81.20;;;;;;4972603;28;20388;-83
2022/04/27 13:24:17;;;;;;;14.65;7.22;;;14.80;82.00;;;;;;4973304;28;20073;-82
2022/04/27 13:26:43;;;;;;;12.55;7.30;;;14.80;80.80;;;;;;4973300;28;20088;-82
2022/04/27 13:29:09;;;;;;;12.45;7.07;;;14.80;81.20;;;;;;4973225;28;20030;-82